sensor_id;sensor_type;location;lat;lon;timestamp;P1;durP1;ratioP1;P2;durP2;ratioP2
69748;SDS011;57019;52.354;6.584;2022-07-22T00:01:23;6.30;;;1.20;;
69748;SDS011;57019;52.354;6.584;2022-07-22T00:03:48;4.60;;;1.10;;
69748;SDS011;57019;52.354;6.584;2022-07-22T00:06:14;3.67;;;1.00;;
69748;SDS011;57019;52.354;6.584;2022-07-22T00:08:39;4.97;;;1.10;;
69748;SDS011;57019;52.354;6.584;2022-07-22T00:11:05;5.50;;;1.20;;
69748;SDS011;57019;52.354;6.584;2022-07-22T00:13:30;5.13;;;1.00;;
69748;SDS011;57019;52.354;6.584;2022-07-22T00:15:56;4.00;;;1.10;;
69748;SDS011;57019;52.354;6.584;2022-07-22T00:18:22;5.47;;;1.10;;
69748;SDS011;57019;52.354;6.584;2022-07-22T00:20:47;5.67;;;1.20;;
69748;SDS011;57019;52.354;6.584;2022-07-22T00:23:12;5.73;;;1.00;;
69748;SDS011;57019;52.354;6.584;2022-07-22T00:25:37;4.80;;;0.90;;
69748;SDS011;57019;52.354;6.584;2022-07-22T00:28:03;5.63;;;1.43;;
69748;SDS011;57019;52.354;6.584;2022-07-22T00:30:29;4.60;;;1.20;;
69748;SDS011;57019;52.354;6.584;2022-07-22T00:32:54;5.30;;;1.00;;
69748;SDS011;57019;52.354;6.584;2022-07-22T00:35:20;6.82;;;1.10;;
69748;SDS011;57019;52.354;6.584;2022-07-22T00:37:45;4.77;;;1.07;;
69748;SDS011;57019;52.354;6.584;2022-07-22T00:40:11;6.20;;;1.23;;
69748;SDS011;57019;52.354;6.584;2022-07-22T00:42:36;6.10;;;1.20;;
69748;SDS011;57019;52.354;6.584;2022-07-22T00:45:02;6.73;;;1.30;;
69748;SDS011;57019;52.354;6.584;2022-07-22T00:47:27;5.33;;;1.10;;
69748;SDS011;57019;52.354;6.584;2022-07-22T00:49:53;4.00;;;1.20;;
69748;SDS011;57019;52.354;6.584;2022-07-22T00:52:18;5.37;;;1.30;;
69748;SDS011;57019;52.354;6.584;2022-07-22T00:54:45;5.78;;;1.10;;
69748;SDS011;57019;52.354;6.584;2022-07-22T00:57:10;4.63;;;1.07;;
69748;SDS011;57019;52.354;6.584;2022-07-22T00:59:35;5.32;;;1.23;;
69748;SDS011;57019;52.354;6.584;2022-07-22T01:02:01;7.17;;;1.47;;
69748;SDS011;57019;52.354;6.584;2022-07-22T01:04:27;6.57;;;1.33;;
69748;SDS011;57019;52.354;6.584;2022-07-22T01:06:52;4.93;;;1.17;;
69748;SDS011;57019;52.354;6.584;2022-07-22T01:09:17;5.47;;;1.20;;
69748;SDS011;57019;52.354;6.584;2022-07-22T01:11:43;7.10;;;1.30;;
69748;SDS011;57019;52.354;6.584;2022-07-22T01:14:08;4.82;;;1.20;;
69748;SDS011;57019;52.354;6.584;2022-07-22T01:16:34;5.90;;;1.20;;
69748;SDS011;57019;52.354;6.584;2022-07-22T01:18:59;4.23;;;1.20;;
69748;SDS011;57019;52.354;6.584;2022-07-22T01:21:25;5.13;;;1.10;;
69748;SDS011;57019;52.354;6.584;2022-07-22T01:23:50;6.17;;;1.30;;
69748;SDS011;57019;52.354;6.584;2022-07-22T01:26:16;6.35;;;1.30;;
69748;SDS011;57019;52.354;6.584;2022-07-22T01:28:42;6.83;;;1.30;;
69748;SDS011;57019;52.354;6.584;2022-07-22T01:31:08;5.20;;;1.35;;
69748;SDS011;57019;52.354;6.584;2022-07-22T01:33:34;5.93;;;1.40;;
69748;SDS011;57019;52.354;6.584;2022-07-22T01:36:00;5.43;;;1.20;;
69748;SDS011;57019;52.354;6.584;2022-07-22T01:38:26;5.45;;;1.20;;
69748;SDS011;57019;52.354;6.584;2022-07-22T01:40:51;5.63;;;1.33;;
69748;SDS011;57019;52.354;6.584;2022-07-22T01:43:16;5.73;;;1.20;;
69748;SDS011;57019;52.354;6.584;2022-07-22T01:45:44;6.10;;;1.30;;
69748;SDS011;57019;52.354;6.584;2022-07-22T01:48:10;7.38;;;1.40;;
69748;SDS011;57019;52.354;6.584;2022-07-22T01:50:36;5.57;;;1.30;;
69748;SDS011;57019;52.354;6.584;2022-07-22T01:53:02;5.43;;;1.40;;
69748;SDS011;57019;52.354;6.584;2022-07-22T01:55:27;8.97;;;1.37;;
69748;SDS011;57019;52.354;6.584;2022-07-22T01:57:52;5.77;;;1.43;;
69748;SDS011;57019;52.354;6.584;2022-07-22T02:00:18;5.15;;;1.25;;
69748;SDS011;57019;52.354;6.584;2022-07-22T02:02:43;5.77;;;1.30;;
69748;SDS011;57019;52.354;6.584;2022-07-22T02:05:08;5.63;;;1.30;;
69748;SDS011;57019;52.354;6.584;2022-07-22T02:07:34;5.97;;;1.20;;
69748;SDS011;57019;52.354;6.584;2022-07-22T02:10:00;7.20;;;1.33;;
69748;SDS011;57019;52.354;6.584;2022-07-22T02:12:25;5.67;;;1.50;;
69748;SDS011;57019;52.354;6.584;2022-07-22T02:14:51;5.50;;;1.40;;
69748;SDS011;57019;52.354;6.584;2022-07-22T02:17:16;4.73;;;1.40;;
69748;SDS011;57019;52.354;6.584;2022-07-22T02:19:41;5.10;;;1.40;;
69748;SDS011;57019;52.354;6.584;2022-07-22T02:22:07;6.47;;;1.67;;
69748;SDS011;57019;52.354;6.584;2022-07-22T02:24:32;7.13;;;1.60;;
69748;SDS011;57019;52.354;6.584;2022-07-22T02:26:58;5.87;;;1.23;;
69748;SDS011;57019;52.354;6.584;2022-07-22T02:29:23;7.25;;;1.40;;
69748;SDS011;57019;52.354;6.584;2022-07-22T02:31:49;5.27;;;1.40;;
69748;SDS011;57019;52.354;6.584;2022-07-22T02:34:14;4.27;;;1.20;;
69748;SDS011;57019;52.354;6.584;2022-07-22T02:36:40;4.50;;;1.20;;
69748;SDS011;57019;52.354;6.584;2022-07-22T02:39:05;6.13;;;1.40;;
69748;SDS011;57019;52.354;6.584;2022-07-22T02:41:30;5.77;;;1.40;;
69748;SDS011;57019;52.354;6.584;2022-07-22T02:43:56;6.60;;;1.50;;
69748;SDS011;57019;52.354;6.584;2022-07-22T02:46:22;5.37;;;1.37;;
69748;SDS011;57019;52.354;6.584;2022-07-22T02:48:47;6.00;;;1.58;;
69748;SDS011;57019;52.354;6.584;2022-07-22T02:51:13;5.50;;;1.40;;
69748;SDS011;57019;52.354;6.584;2022-07-22T02:53:38;5.20;;;1.40;;
69748;SDS011;57019;52.354;6.584;2022-07-22T02:56:04;6.90;;;1.60;;
69748;SDS011;57019;52.354;6.584;2022-07-22T02:58:29;4.40;;;1.23;;
69748;SDS011;57019;52.354;6.584;2022-07-22T03:00:55;6.87;;;1.30;;
69748;SDS011;57019;52.354;6.584;2022-07-22T03:03:20;6.50;;;1.50;;
69748;SDS011;57019;52.354;6.584;2022-07-22T03:05:45;4.97;;;1.23;;
69748;SDS011;57019;52.354;6.584;2022-07-22T03:08:11;5.07;;;1.40;;
69748;SDS011;57019;52.354;6.584;2022-07-22T03:10:36;5.47;;;1.40;;
69748;SDS011;57019;52.354;6.584;2022-07-22T03:13:02;7.90;;;1.30;;
69748;SDS011;57019;52.354;6.584;2022-07-22T03:15:27;5.15;;;1.20;;
69748;SDS011;57019;52.354;6.584;2022-07-22T03:17:52;5.67;;;1.30;;
69748;SDS011;57019;52.354;6.584;2022-07-22T03:20:18;6.93;;;1.50;;
69748;SDS011;57019;52.354;6.584;2022-07-22T03:22:43;6.20;;;1.40;;
69748;SDS011;57019;52.354;6.584;2022-07-22T03:25:08;5.70;;;1.40;;
69748;SDS011;57019;52.354;6.584;2022-07-22T03:27:34;5.63;;;1.30;;
69748;SDS011;57019;52.354;6.584;2022-07-22T03:29:59;5.50;;;1.20;;
69748;SDS011;57019;52.354;6.584;2022-07-22T03:32:25;7.53;;;1.42;;
69748;SDS011;57019;52.354;6.584;2022-07-22T03:34:50;5.47;;;1.17;;
69748;SDS011;57019;52.354;6.584;2022-07-22T03:37:15;4.30;;;1.30;;
69748;SDS011;57019;52.354;6.584;2022-07-22T03:39:41;9.97;;;1.37;;
69748;SDS011;57019;52.354;6.584;2022-07-22T03:42:06;6.37;;;1.50;;
69748;SDS011;57019;52.354;6.584;2022-07-22T03:44:31;5.13;;;1.13;;
69748;SDS011;57019;52.354;6.584;2022-07-22T03:46:56;5.30;;;1.40;;
69748;SDS011;57019;52.354;6.584;2022-07-22T03:49:22;5.87;;;1.70;;
69748;SDS011;57019;52.354;6.584;2022-07-22T03:51:47;6.55;;;1.50;;
69748;SDS011;57019;52.354;6.584;2022-07-22T03:54:12;5.47;;;1.30;;
69748;SDS011;57019;52.354;6.584;2022-07-22T03:56:38;6.00;;;1.60;;
69748;SDS011;57019;52.354;6.584;2022-07-22T03:59:03;5.93;;;1.20;;
69748;SDS011;57019;52.354;6.584;2022-07-22T04:01:29;4.83;;;1.47;;
69748;SDS011;57019;52.354;6.584;2022-07-22T04:03:54;5.93;;;1.30;;
69748;SDS011;57019;52.354;6.584;2022-07-22T04:06:20;4.43;;;1.10;;
69748;SDS011;57019;52.354;6.584;2022-07-22T04:08:45;7.67;;;1.30;;
69748;SDS011;57019;52.354;6.584;2022-07-22T04:11:10;6.90;;;1.50;;
69748;SDS011;57019;52.354;6.584;2022-07-22T04:13:36;5.30;;;1.40;;
69748;SDS011;57019;52.354;6.584;2022-07-22T04:16:01;4.97;;;1.40;;
69748;SDS011;57019;52.354;6.584;2022-07-22T04:18:29;4.22;;;1.08;;
69748;SDS011;57019;52.354;6.584;2022-07-22T04:20:55;4.63;;;1.17;;
69748;SDS011;57019;52.354;6.584;2022-07-22T04:23:20;6.80;;;1.40;;
69748;SDS011;57019;52.354;6.584;2022-07-22T04:25:46;4.00;;;1.10;;
69748;SDS011;57019;52.354;6.584;2022-07-22T04:28:11;6.40;;;1.40;;
69748;SDS011;57019;52.354;6.584;2022-07-22T04:30:36;6.55;;;1.42;;
69748;SDS011;57019;52.354;6.584;2022-07-22T04:33:02;4.20;;;1.07;;
69748;SDS011;57019;52.354;6.584;2022-07-22T04:35:27;5.57;;;1.30;;
69748;SDS011;57019;52.354;6.584;2022-07-22T04:37:52;5.33;;;1.20;;
69748;SDS011;57019;52.354;6.584;2022-07-22T04:40:18;5.13;;;1.40;;
69748;SDS011;57019;52.354;6.584;2022-07-22T04:42:43;6.20;;;1.27;;
69748;SDS011;57019;52.354;6.584;2022-07-22T04:45:10;6.18;;;1.30;;
69748;SDS011;57019;52.354;6.584;2022-07-22T04:47:36;5.95;;;1.23;;
69748;SDS011;57019;52.354;6.584;2022-07-22T04:50:02;5.60;;;1.30;;
69748;SDS011;57019;52.354;6.584;2022-07-22T04:52:28;4.15;;;1.30;;
69748;SDS011;57019;52.354;6.584;2022-07-22T04:54:53;8.03;;;1.40;;
69748;SDS011;57019;52.354;6.584;2022-07-22T04:57:18;4.87;;;1.20;;
69748;SDS011;57019;52.354;6.584;2022-07-22T04:59:43;5.80;;;1.30;;
69748;SDS011;57019;52.354;6.584;2022-07-22T05:02:09;5.97;;;1.50;;
69748;SDS011;57019;52.354;6.584;2022-07-22T05:04:34;5.73;;;1.33;;
69748;SDS011;57019;52.354;6.584;2022-07-22T05:06:59;6.97;;;1.30;;
69748;SDS011;57019;52.354;6.584;2022-07-22T05:09:25;6.30;;;1.20;;
69748;SDS011;57019;52.354;6.584;2022-07-22T05:11:50;4.90;;;1.23;;
69748;SDS011;57019;52.354;6.584;2022-07-22T05:14:16;6.55;;;1.20;;
69748;SDS011;57019;52.354;6.584;2022-07-22T05:16:41;8.00;;;1.47;;
69748;SDS011;57019;52.354;6.584;2022-07-22T05:19:06;5.20;;;1.23;;
69748;SDS011;57019;52.354;6.584;2022-07-22T05:21:32;6.97;;;1.60;;
69748;SDS011;57019;52.354;6.584;2022-07-22T05:23:58;6.40;;;1.33;;
69748;SDS011;57019;52.354;6.584;2022-07-22T05:26:24;6.40;;;1.20;;
69748;SDS011;57019;52.354;6.584;2022-07-22T05:28:49;6.15;;;1.40;;
69748;SDS011;57019;52.354;6.584;2022-07-22T05:31:16;6.07;;;1.50;;
69748;SDS011;57019;52.354;6.584;2022-07-22T05:33:41;5.65;;;1.30;;
69748;SDS011;57019;52.354;6.584;2022-07-22T05:36:07;7.73;;;1.47;;
69748;SDS011;57019;52.354;6.584;2022-07-22T05:38:34;4.65;;;1.17;;
69748;SDS011;57019;52.354;6.584;2022-07-22T05:41:00;5.20;;;1.50;;
69748;SDS011;57019;52.354;6.584;2022-07-22T05:43:26;5.63;;;1.40;;
69748;SDS011;57019;52.354;6.584;2022-07-22T05:45:51;4.03;;;1.10;;
69748;SDS011;57019;52.354;6.584;2022-07-22T05:48:16;6.03;;;1.30;;
69748;SDS011;57019;52.354;6.584;2022-07-22T05:50:42;6.43;;;1.47;;
69748;SDS011;57019;52.354;6.584;2022-07-22T05:53:07;4.33;;;1.20;;
69748;SDS011;57019;52.354;6.584;2022-07-22T05:55:32;4.93;;;1.20;;
69748;SDS011;57019;52.354;6.584;2022-07-22T05:57:58;4.72;;;1.27;;
69748;SDS011;57019;52.354;6.584;2022-07-22T06:00:23;6.27;;;1.40;;
69748;SDS011;57019;52.354;6.584;2022-07-22T06:02:49;5.43;;;1.30;;
69748;SDS011;57019;52.354;6.584;2022-07-22T06:05:14;5.60;;;1.40;;
69748;SDS011;57019;52.354;6.584;2022-07-22T06:07:39;6.17;;;1.40;;
69748;SDS011;57019;52.354;6.584;2022-07-22T06:10:05;5.43;;;1.20;;
69748;SDS011;57019;52.354;6.584;2022-07-22T06:12:30;5.30;;;1.30;;
69748;SDS011;57019;52.354;6.584;2022-07-22T06:14:55;6.77;;;1.53;;
69748;SDS011;57019;52.354;6.584;2022-07-22T06:17:21;6.10;;;1.30;;
69748;SDS011;57019;52.354;6.584;2022-07-22T06:19:46;4.80;;;1.30;;
69748;SDS011;57019;52.354;6.584;2022-07-22T06:22:11;5.97;;;1.20;;
69748;SDS011;57019;52.354;6.584;2022-07-22T06:24:37;5.10;;;1.37;;
69748;SDS011;57019;52.354;6.584;2022-07-22T06:27:02;7.77;;;1.40;;
69748;SDS011;57019;52.354;6.584;2022-07-22T06:29:28;6.93;;;1.57;;
69748;SDS011;57019;52.354;6.584;2022-07-22T06:31:53;6.97;;;1.30;;
69748;SDS011;57019;52.354;6.584;2022-07-22T06:34:19;5.63;;;1.30;;
69748;SDS011;57019;52.354;6.584;2022-07-22T06:36:44;7.33;;;1.60;;
69748;SDS011;57019;52.354;6.584;2022-07-22T06:39:09;8.63;;;2.13;;
69748;SDS011;57019;52.354;6.584;2022-07-22T06:41:35;6.57;;;1.63;;
69748;SDS011;57019;52.354;6.584;2022-07-22T06:44:00;5.93;;;1.43;;
69748;SDS011;57019;52.354;6.584;2022-07-22T06:46:25;5.50;;;1.40;;
69748;SDS011;57019;52.354;6.584;2022-07-22T06:48:51;6.00;;;1.47;;
69748;SDS011;57019;52.354;6.584;2022-07-22T06:51:16;5.97;;;1.50;;
69748;SDS011;57019;52.354;6.584;2022-07-22T06:53:42;7.07;;;1.67;;
69748;SDS011;57019;52.354;6.584;2022-07-22T06:56:07;6.53;;;1.40;;
69748;SDS011;57019;52.354;6.584;2022-07-22T06:58:33;6.32;;;1.58;;
69748;SDS011;57019;52.354;6.584;2022-07-22T07:00:58;6.20;;;1.47;;
69748;SDS011;57019;52.354;6.584;2022-07-22T07:03:24;5.40;;;1.40;;
69748;SDS011;57019;52.354;6.584;2022-07-22T07:05:50;6.55;;;1.50;;
69748;SDS011;57019;52.354;6.584;2022-07-22T07:08:16;5.63;;;1.50;;
69748;SDS011;57019;52.354;6.584;2022-07-22T07:10:42;6.13;;;1.53;;
69748;SDS011;57019;52.354;6.584;2022-07-22T07:13:08;7.47;;;1.33;;
69748;SDS011;57019;52.354;6.584;2022-07-22T07:15:33;7.17;;;1.50;;
69748;SDS011;57019;52.354;6.584;2022-07-22T07:17:58;6.57;;;1.47;;
69748;SDS011;57019;52.354;6.584;2022-07-22T07:20:24;5.53;;;1.43;;
69748;SDS011;57019;52.354;6.584;2022-07-22T07:22:50;4.97;;;1.30;;
69748;SDS011;57019;52.354;6.584;2022-07-22T07:25:15;6.17;;;1.40;;
69748;SDS011;57019;52.354;6.584;2022-07-22T07:27:41;6.28;;;1.20;;
69748;SDS011;57019;52.354;6.584;2022-07-22T07:30:06;5.40;;;1.50;;
69748;SDS011;57019;52.354;6.584;2022-07-22T07:32:34;5.88;;;1.30;;
69748;SDS011;57019;52.354;6.584;2022-07-22T07:35:01;4.70;;;1.30;;
69748;SDS011;57019;52.354;6.584;2022-07-22T07:37:27;6.30;;;1.42;;
69748;SDS011;57019;52.354;6.584;2022-07-22T07:39:52;10.10;;;1.50;;
69748;SDS011;57019;52.354;6.584;2022-07-22T07:42:17;6.33;;;1.30;;
69748;SDS011;57019;52.354;6.584;2022-07-22T07:44:43;6.03;;;1.20;;
69748;SDS011;57019;52.354;6.584;2022-07-22T07:47:08;6.57;;;1.40;;
69748;SDS011;57019;52.354;6.584;2022-07-22T07:49:33;6.20;;;1.53;;
69748;SDS011;57019;52.354;6.584;2022-07-22T07:51:59;5.50;;;1.57;;
69748;SDS011;57019;52.354;6.584;2022-07-22T07:54:24;6.27;;;1.30;;
69748;SDS011;57019;52.354;6.584;2022-07-22T07:56:50;4.93;;;1.40;;
69748;SDS011;57019;52.354;6.584;2022-07-22T07:59:15;5.07;;;1.30;;
69748;SDS011;57019;52.354;6.584;2022-07-22T08:01:42;5.05;;;1.17;;
69748;SDS011;57019;52.354;6.584;2022-07-22T08:04:07;4.40;;;1.40;;
69748;SDS011;57019;52.354;6.584;2022-07-22T08:06:32;4.50;;;1.00;;
69748;SDS011;57019;52.354;6.584;2022-07-22T08:08:58;4.77;;;1.30;;
69748;SDS011;57019;52.354;6.584;2022-07-22T08:11:23;4.33;;;1.10;;
69748;SDS011;57019;52.354;6.584;2022-07-22T08:13:49;5.65;;;1.30;;
69748;SDS011;57019;52.354;6.584;2022-07-22T08:16:14;5.10;;;1.23;;
69748;SDS011;57019;52.354;6.584;2022-07-22T08:18:40;5.13;;;1.20;;
69748;SDS011;57019;52.354;6.584;2022-07-22T08:21:05;6.07;;;1.40;;
69748;SDS011;57019;52.354;6.584;2022-07-22T08:23:31;4.90;;;1.20;;
69748;SDS011;57019;52.354;6.584;2022-07-22T08:25:56;4.85;;;1.25;;
69748;SDS011;57019;52.354;6.584;2022-07-22T08:28:22;5.17;;;1.30;;
69748;SDS011;57019;52.354;6.584;2022-07-22T08:30:47;4.53;;;1.20;;
69748;SDS011;57019;52.354;6.584;2022-07-22T08:33:12;3.73;;;1.13;;
69748;SDS011;57019;52.354;6.584;2022-07-22T08:35:38;5.93;;;1.40;;
69748;SDS011;57019;52.354;6.584;2022-07-22T08:38:03;4.80;;;1.15;;
69748;SDS011;57019;52.354;6.584;2022-07-22T08:40:29;5.07;;;1.30;;
69748;SDS011;57019;52.354;6.584;2022-07-22T08:42:54;5.67;;;1.60;;
69748;SDS011;57019;52.354;6.584;2022-07-22T08:45:20;5.27;;;1.23;;
69748;SDS011;57019;52.354;6.584;2022-07-22T08:47:46;7.10;;;1.60;;
69748;SDS011;57019;52.354;6.584;2022-07-22T08:50:13;4.53;;;1.23;;
69748;SDS011;57019;52.354;6.584;2022-07-22T08:52:38;4.50;;;1.20;;
69748;SDS011;57019;52.354;6.584;2022-07-22T08:55:05;5.65;;;1.48;;
69748;SDS011;57019;52.354;6.584;2022-07-22T08:57:31;4.80;;;1.33;;
69748;SDS011;57019;52.354;6.584;2022-07-22T08:59:58;5.63;;;1.20;;
69748;SDS011;57019;52.354;6.584;2022-07-22T09:02:24;5.37;;;1.47;;
69748;SDS011;57019;52.354;6.584;2022-07-22T09:04:54;5.30;;;1.27;;
69748;SDS011;57019;52.354;6.584;2022-07-22T09:07:58;5.43;;;1.20;;
69748;SDS011;57019;52.354;6.584;2022-07-22T09:10:22;3.70;;;1.23;;
69748;SDS011;57019;52.354;6.584;2022-07-22T09:15:24;4.45;;;1.15;;
69748;SDS011;57019;52.354;6.584;2022-07-22T09:17:54;4.23;;;1.10;;
69748;SDS011;57019;52.354;6.584;2022-07-22T09:20:20;4.72;;;1.23;;
69748;SDS011;57019;52.354;6.584;2022-07-22T09:22:46;4.32;;;1.30;;
69748;SDS011;57019;52.354;6.584;2022-07-22T09:25:17;4.97;;;1.40;;
69748;SDS011;57019;52.354;6.584;2022-07-22T09:27:51;5.88;;;1.30;;
69748;SDS011;57019;52.354;6.584;2022-07-22T09:30:22;3.83;;;1.10;;
69748;SDS011;57019;52.354;6.584;2022-07-22T09:32:49;6.20;;;1.20;;
69748;SDS011;57019;52.354;6.584;2022-07-22T09:35:16;4.60;;;1.20;;
69748;SDS011;57019;52.354;6.584;2022-07-22T09:42:59;4.80;;;1.10;;
69748;SDS011;57019;52.354;6.584;2022-07-22T09:45:30;5.83;;;1.10;;
69748;SDS011;57019;52.354;6.584;2022-07-22T09:47:57;5.10;;;1.30;;
69748;SDS011;57019;52.354;6.584;2022-07-22T09:50:28;6.30;;;1.20;;
69748;SDS011;57019;52.354;6.584;2022-07-22T09:52:58;4.78;;;1.30;;
69748;SDS011;57019;52.354;6.584;2022-07-22T09:55:25;4.53;;;1.20;;
69748;SDS011;57019;52.354;6.584;2022-07-22T09:57:52;4.30;;;1.20;;
69748;SDS011;57019;52.354;6.584;2022-07-22T10:00:19;7.15;;;1.30;;
69748;SDS011;57019;52.354;6.584;2022-07-22T10:02:48;4.88;;;1.20;;
69748;SDS011;57019;52.354;6.584;2022-07-22T10:05:16;5.28;;;1.38;;
69748;SDS011;57019;52.354;6.584;2022-07-22T10:07:44;4.05;;;1.15;;
69748;SDS011;57019;52.354;6.584;2022-07-22T10:10:11;3.97;;;1.20;;
69748;SDS011;57019;52.354;6.584;2022-07-22T10:12:38;5.10;;;1.10;;
69748;SDS011;57019;52.354;6.584;2022-07-22T10:15:05;5.75;;;1.38;;
69748;SDS011;57019;52.354;6.584;2022-07-22T10:17:32;4.93;;;1.40;;
69748;SDS011;57019;52.354;6.584;2022-07-22T10:20:00;6.63;;;1.30;;
69748;SDS011;57019;52.354;6.584;2022-07-22T10:25:13;4.35;;;1.38;;
69748;SDS011;57019;52.354;6.584;2022-07-22T10:30:33;5.17;;;1.30;;
69748;SDS011;57019;52.354;6.584;2022-07-22T10:33:10;5.00;;;1.30;;
69748;SDS011;57019;52.354;6.584;2022-07-22T10:35:59;4.20;;;1.33;;
69748;SDS011;57019;52.354;6.584;2022-07-22T10:38:27;4.32;;;1.20;;
69748;SDS011;57019;52.354;6.584;2022-07-22T10:40:58;5.15;;;1.27;;
69748;SDS011;57019;52.354;6.584;2022-07-22T10:45:56;4.70;;;1.40;;
69748;SDS011;57019;52.354;6.584;2022-07-22T11:01:22;5.57;;;1.33;;
69748;SDS011;57019;52.354;6.584;2022-07-22T11:03:50;5.28;;;1.40;;
69748;SDS011;57019;52.354;6.584;2022-07-22T11:08:45;5.80;;;1.17;;
69748;SDS011;57019;52.354;6.584;2022-07-22T11:11:11;4.97;;;1.10;;
69748;SDS011;57019;52.354;6.584;2022-07-22T11:13:38;5.07;;;1.20;;
69748;SDS011;57019;52.354;6.584;2022-07-22T11:16:21;4.43;;;1.20;;
69748;SDS011;57019;52.354;6.584;2022-07-22T11:18:53;5.35;;;1.23;;
69748;SDS011;57019;52.354;6.584;2022-07-22T11:21:23;4.75;;;1.33;;
69748;SDS011;57019;52.354;6.584;2022-07-22T11:23:51;6.43;;;1.30;;
69748;SDS011;57019;52.354;6.584;2022-07-22T11:26:19;5.30;;;1.30;;
69748;SDS011;57019;52.354;6.584;2022-07-22T11:28:51;6.70;;;1.30;;
69748;SDS011;57019;52.354;6.584;2022-07-22T11:31:17;5.77;;;1.40;;
69748;SDS011;57019;52.354;6.584;2022-07-22T11:33:46;6.65;;;1.33;;
69748;SDS011;57019;52.354;6.584;2022-07-22T11:36:12;4.72;;;1.20;;
69748;SDS011;57019;52.354;6.584;2022-07-22T11:38:41;5.40;;;1.30;;
69748;SDS011;57019;52.354;6.584;2022-07-22T11:41:14;7.10;;;1.55;;
69748;SDS011;57019;52.354;6.584;2022-07-22T11:43:42;5.18;;;1.35;;
69748;SDS011;57019;52.354;6.584;2022-07-22T11:46:12;7.00;;;2.60;;
69748;SDS011;57019;52.354;6.584;2022-07-22T11:48:39;8.95;;;2.65;;
69748;SDS011;57019;52.354;6.584;2022-07-22T11:51:05;10.23;;;3.33;;
69748;SDS011;57019;52.354;6.584;2022-07-22T11:53:31;8.60;;;2.90;;
69748;SDS011;57019;52.354;6.584;2022-07-22T11:55:57;23.87;;;3.23;;
69748;SDS011;57019;52.354;6.584;2022-07-22T11:58:43;9.90;;;3.17;;
69748;SDS011;57019;52.354;6.584;2022-07-22T12:01:13;8.18;;;2.78;;
69748;SDS011;57019;52.354;6.584;2022-07-22T12:03:41;7.45;;;2.20;;
69748;SDS011;57019;52.354;6.584;2022-07-22T12:06:12;6.07;;;1.70;;
69748;SDS011;57019;52.354;6.584;2022-07-22T12:08:40;10.05;;;1.60;;
69748;SDS011;57019;52.354;6.584;2022-07-22T12:11:08;11.25;;;2.00;;
69748;SDS011;57019;52.354;6.584;2022-07-22T12:13:35;6.35;;;1.73;;
69748;SDS011;57019;52.354;6.584;2022-07-22T12:16:07;5.73;;;1.40;;
69748;SDS011;57019;52.354;6.584;2022-07-22T12:19:18;6.93;;;1.60;;
69748;SDS011;57019;52.354;6.584;2022-07-22T12:21:51;8.43;;;1.53;;
69748;SDS011;57019;52.354;6.584;2022-07-22T12:24:28;5.93;;;1.50;;
69748;SDS011;57019;52.354;6.584;2022-07-22T12:26:58;6.65;;;1.38;;
69748;SDS011;57019;52.354;6.584;2022-07-22T12:31:59;5.60;;;1.27;;
69748;SDS011;57019;52.354;6.584;2022-07-22T12:37:42;7.32;;;1.20;;
69748;SDS011;57019;52.354;6.584;2022-07-22T12:40:10;6.05;;;1.50;;
69748;SDS011;57019;52.354;6.584;2022-07-22T12:42:45;6.22;;;1.40;;
69748;SDS011;57019;52.354;6.584;2022-07-22T12:45:28;5.97;;;1.30;;
69748;SDS011;57019;52.354;6.584;2022-07-22T12:47:55;7.60;;;1.40;;
69748;SDS011;57019;52.354;6.584;2022-07-22T12:53:23;5.30;;;1.38;;
69748;SDS011;57019;52.354;6.584;2022-07-22T12:55:54;6.05;;;1.60;;
69748;SDS011;57019;52.354;6.584;2022-07-22T12:58:22;4.70;;;1.43;;
69748;SDS011;57019;52.354;6.584;2022-07-22T13:00:53;5.13;;;1.35;;
69748;SDS011;57019;52.354;6.584;2022-07-22T13:03:21;7.75;;;1.50;;
69748;SDS011;57019;52.354;6.584;2022-07-22T13:05:48;6.90;;;1.60;;
69748;SDS011;57019;52.354;6.584;2022-07-22T13:08:15;4.95;;;1.30;;
69748;SDS011;57019;52.354;6.584;2022-07-22T13:10:40;6.90;;;1.60;;
69748;SDS011;57019;52.354;6.584;2022-07-22T13:13:06;5.53;;;1.50;;
69748;SDS011;57019;52.354;6.584;2022-07-22T13:15:31;5.65;;;1.52;;
69748;SDS011;57019;52.354;6.584;2022-07-22T13:17:57;5.50;;;1.50;;
69748;SDS011;57019;52.354;6.584;2022-07-22T13:20:22;7.13;;;1.50;;
69748;SDS011;57019;52.354;6.584;2022-07-22T13:22:48;6.00;;;1.50;;
69748;SDS011;57019;52.354;6.584;2022-07-22T13:25:13;6.53;;;2.13;;
69748;SDS011;57019;52.354;6.584;2022-07-22T13:27:39;7.70;;;2.30;;
69748;SDS011;57019;52.354;6.584;2022-07-22T13:30:05;8.82;;;2.17;;
69748;SDS011;57019;52.354;6.584;2022-07-22T13:32:31;6.37;;;2.10;;
69748;SDS011;57019;52.354;6.584;2022-07-22T13:34:56;6.30;;;2.00;;
69748;SDS011;57019;52.354;6.584;2022-07-22T13:37:22;7.30;;;2.37;;
69748;SDS011;57019;52.354;6.584;2022-07-22T13:39:48;7.05;;;2.17;;
69748;SDS011;57019;52.354;6.584;2022-07-22T13:42:14;7.30;;;2.50;;
69748;SDS011;57019;52.354;6.584;2022-07-22T13:44:43;8.70;;;2.25;;
69748;SDS011;57019;52.354;6.584;2022-07-22T13:47:12;6.85;;;2.20;;
69748;SDS011;57019;52.354;6.584;2022-07-22T13:49:38;7.47;;;2.20;;
69748;SDS011;57019;52.354;6.584;2022-07-22T13:52:03;8.30;;;2.10;;
69748;SDS011;57019;52.354;6.584;2022-07-22T13:54:29;7.87;;;1.97;;
69748;SDS011;57019;52.354;6.584;2022-07-22T13:56:55;5.55;;;2.05;;
69748;SDS011;57019;52.354;6.584;2022-07-22T13:59:20;5.50;;;1.80;;
69748;SDS011;57019;52.354;6.584;2022-07-22T14:01:48;7.93;;;2.05;;
69748;SDS011;57019;52.354;6.584;2022-07-22T14:04:13;6.27;;;2.20;;
69748;SDS011;57019;52.354;6.584;2022-07-22T14:06:38;7.97;;;2.10;;
69748;SDS011;57019;52.354;6.584;2022-07-22T14:09:04;9.27;;;2.13;;
69748;SDS011;57019;52.354;6.584;2022-07-22T14:11:29;6.38;;;2.10;;
69748;SDS011;57019;52.354;6.584;2022-07-22T14:13:55;9.77;;;1.93;;
69748;SDS011;57019;52.354;6.584;2022-07-22T14:16:20;7.00;;;1.90;;
69748;SDS011;57019;52.354;6.584;2022-07-22T14:19:05;5.40;;;1.88;;
69748;SDS011;57019;52.354;6.584;2022-07-22T14:21:32;9.27;;;2.10;;
69748;SDS011;57019;52.354;6.584;2022-07-22T14:23:59;6.25;;;1.75;;
69748;SDS011;57019;52.354;6.584;2022-07-22T14:26:25;7.32;;;1.65;;
69748;SDS011;57019;52.354;6.584;2022-07-22T14:28:51;5.68;;;1.63;;
69748;SDS011;57019;52.354;6.584;2022-07-22T14:31:16;5.60;;;1.57;;
69748;SDS011;57019;52.354;6.584;2022-07-22T14:33:42;7.03;;;1.70;;
69748;SDS011;57019;52.354;6.584;2022-07-22T14:36:07;6.53;;;1.80;;
69748;SDS011;57019;52.354;6.584;2022-07-22T14:38:33;7.40;;;1.90;;
69748;SDS011;57019;52.354;6.584;2022-07-22T14:40:58;8.13;;;1.60;;
69748;SDS011;57019;52.354;6.584;2022-07-22T14:43:24;6.67;;;1.50;;
69748;SDS011;57019;52.354;6.584;2022-07-22T14:45:49;7.93;;;1.70;;
69748;SDS011;57019;52.354;6.584;2022-07-22T14:48:15;5.38;;;1.40;;
69748;SDS011;57019;52.354;6.584;2022-07-22T14:50:40;6.10;;;1.50;;
69748;SDS011;57019;52.354;6.584;2022-07-22T14:53:06;4.90;;;1.50;;
69748;SDS011;57019;52.354;6.584;2022-07-22T14:55:31;5.97;;;1.67;;
69748;SDS011;57019;52.354;6.584;2022-07-22T14:57:56;6.33;;;1.50;;
69748;SDS011;57019;52.354;6.584;2022-07-22T15:00:22;4.57;;;1.50;;
69748;SDS011;57019;52.354;6.584;2022-07-22T15:02:47;5.20;;;1.43;;
69748;SDS011;57019;52.354;6.584;2022-07-22T15:05:12;6.20;;;1.60;;
69748;SDS011;57019;52.354;6.584;2022-07-22T15:07:38;5.13;;;1.57;;
69748;SDS011;57019;52.354;6.584;2022-07-22T15:10:03;5.20;;;1.50;;
69748;SDS011;57019;52.354;6.584;2022-07-22T15:12:29;4.68;;;1.40;;
69748;SDS011;57019;52.354;6.584;2022-07-22T15:14:54;7.73;;;1.50;;
69748;SDS011;57019;52.354;6.584;2022-07-22T15:17:19;7.60;;;1.70;;
69748;SDS011;57019;52.354;6.584;2022-07-22T15:19:45;7.70;;;1.77;;
69748;SDS011;57019;52.354;6.584;2022-07-22T15:22:10;6.27;;;1.50;;
69748;SDS011;57019;52.354;6.584;2022-07-22T15:24:35;5.73;;;1.30;;